Time;durP1;ratioP1;P1;durP2;ratioP2;P2;SDS_P1;SDS_P2;PMS_P1;PMS_P2;Temp;Humidity;BMP_temperature;BMP_pressure;BME280_temperature;BME280_humidity;BME280_pressure;Samples;Min_cycle;Max_cycle;Signal;HPM_P1;HPM_P2
2023/07/31 00:00:27;;;;;;;1.90;0.97;;;18.00;99.90;;;;;;5037162;28;20307;-81
2023/07/31 00:02:54;;;;;;;3.63;1.17;;;18.00;99.90;;;;;;5047699;28;20193;-81
2023/07/31 00:05:20;;;;;;;1.50;1.13;;;18.00;99.90;;;;;;5081023;28;20594;-82
2023/07/31 00:07:46;;;;;;;2.97;1.60;;;18.10;99.90;;;;;;5064528;28;20773;-80
2023/07/31 00:10:12;;;;;;;4.80;1.10;;;18.00;99.90;;;;;;5063408;28;20217;-81
2023/07/31 00:12:39;;;;;;;1.87;0.87;;;18.00;99.90;;;;;;5081288;28;20217;-81
2023/07/31 00:15:06;;;;;;;0.70;0.70;;;18.00;99.90;;;;;;5063608;28;20226;-81
2023/07/31 00:17:32;;;;;;;4.63;0.90;;;18.10;99.90;;;;;;5080831;28;20227;-82
2023/07/31 00:19:58;;;;;;;6.40;1.23;;;18.10;99.90;;;;;;5062472;28;20251;-82
2023/07/31 00:22:24;;;;;;;2.70;0.90;;;18.10;99.90;;;;;;5047343;28;20326;-82
2023/07/31 00:24:50;;;;;;;0.80;0.80;;;18.10;99.90;;;;;;5063686;28;20220;-81
2023/07/31 00:27:15;;;;;;;3.20;0.80;;;18.10;99.90;;;;;;5047603;28;20672;-81
2023/07/31 00:29:41;;;;;;;1.30;0.83;;;18.00;99.90;;;;;;5046819;28;20193;-81
2023/07/31 00:32:07;;;;;;;1.70;1.20;;;18.00;99.90;;;;;;5063304;28;20220;-80
2023/07/31 00:34:33;;;;;;;3.37;1.73;;;18.00;99.90;;;;;;5081104;28;21166;-81
2023/07/31 00:36:58;;;;;;;6.50;1.17;;;18.00;99.90;;;;;;5030757;28;20250;-79
2023/07/31 00:39:24;;;;;;;1.20;0.80;;;18.00;99.90;;;;;;5062694;28;20260;-81
2023/07/31 00:41:50;;;;;;;2.70;0.93;;;17.90;99.90;;;;;;5063027;28;20188;-81
2023/07/31 00:44:16;;;;;;;2.40;0.60;;;17.90;99.90;;;;;;5081298;28;20704;-81
2023/07/31 00:46:41;;;;;;;1.20;0.73;;;17.80;99.90;;;;;;5081108;28;20221;-80
2023/07/31 00:49:08;;;;;;;2.27;0.90;;;17.80;99.90;;;;;;5047165;28;20277;-81
2023/07/31 00:51:33;;;;;;;2.13;1.07;;;17.80;99.90;;;;;;5046690;28;20270;-81
2023/07/31 00:54:00;;;;;;;3.40;1.13;;;17.70;99.90;;;;;;5046999;28;20181;-81
2023/07/31 00:56:27;;;;;;;2.47;1.17;;;17.70;99.90;;;;;;5063194;28;20821;-82
2023/07/31 00:58:52;;;;;;;1.33;0.90;;;17.70;99.90;;;;;;5079787;28;20662;-80
2023/07/31 01:01:18;;;;;;;0.93;0.90;;;17.70;99.90;;;;;;5029971;28;20232;-80
2023/07/31 01:03:44;;;;;;;4.60;1.10;;;17.60;99.90;;;;;;5062532;28;20216;-81
2023/07/31 01:06:21;;;;;;;1.33;1.10;;;17.60;99.90;;;;;;5046497;28;20200;-80
2023/07/31 01:09:00;;;;;;;1.53;0.80;;;17.60;99.90;;;;;;5080269;28;20219;-81
2023/07/31 01:11:46;;;;;;;5.30;1.40;;;17.60;99.90;;;;;;5062087;28;20212;-82
2023/07/31 01:14:12;;;;;;;7.20;1.10;;;17.50;99.90;;;;;;5062887;28;20225;-81
2023/07/31 01:16:41;;;;;;;6.73;1.27;;;17.60;99.90;;;;;;5029556;28;20235;-81
2023/07/31 01:19:09;;;;;;;2.53;1.43;;;17.50;99.90;;;;;;5079889;28;20229;-82
2023/07/31 01:21:52;;;;;;;2.17;1.07;;;17.50;99.90;;;;;;5062351;28;20257;-81
2023/07/31 01:24:22;;;;;;;0.90;0.80;;;17.50;99.90;;;;;;5063201;28;20176;-80
2023/07/31 01:26:57;;;;;;;2.10;1.27;;;17.40;99.90;;;;;;5079859;28;20652;-82
2023/07/31 01:29:45;;;;;;;1.57;0.97;;;17.40;99.90;;;;;;5061578;28;20215;-81
2023/07/31 01:32:13;;;;;;;1.67;1.10;;;17.40;99.90;;;;;;5080008;28;20215;-81
2023/07/31 01:34:41;;;;;;;9.70;1.50;;;17.40;99.90;;;;;;5079648;28;20207;-80
2023/07/31 01:37:06;;;;;;;0.77;0.73;;;17.30;99.90;;;;;;5079072;28;20648;-81
2023/07/31 01:39:32;;;;;;;3.57;0.87;;;17.30;99.90;;;;;;5045769;28;20405;-82
2023/07/31 01:41:58;;;;;;;4.30;1.17;;;17.40;99.90;;;;;;5044510;28;20279;-81
2023/07/31 01:44:24;;;;;;;3.50;1.00;;;17.40;99.90;;;;;;5045638;28;20235;-81
2023/07/31 01:46:49;;;;;;;1.40;0.80;;;17.30;99.90;;;;;;5044839;28;20216;-81
2023/07/31 01:49:15;;;;;;;2.83;0.60;;;17.40;99.90;;;;;;5045781;28;20645;-82
2023/07/31 01:51:41;;;;;;;1.77;0.73;;;17.30;99.90;;;;;;5061404;28;20227;-81
2023/07/31 01:54:06;;;;;;;3.30;0.70;;;17.30;99.90;;;;;;5062682;28;20192;-82
2023/07/31 01:56:32;;;;;;;1.33;0.77;;;17.30;99.90;;;;;;5028341;28;20216;-81
2023/07/31 01:58:58;;;;;;;0.70;0.70;;;17.20;99.90;;;;;;5061438;28;20258;-82
2023/07/31 02:01:24;;;;;;;3.17;1.17;;;17.20;99.90;;;;;;5062067;28;20224;-82
2023/07/31 02:03:49;;;;;;;1.30;0.60;;;17.20;99.90;;;;;;5045467;28;20236;-81
2023/07/31 02:06:15;;;;;;;3.30;0.93;;;17.20;99.90;;;;;;5029366;28;20249;-82
2023/07/31 02:08:41;;;;;;;1.20;1.10;;;17.20;99.90;;;;;;5062925;28;20723;-82
2023/07/31 02:11:06;;;;;;;2.33;0.90;;;17.20;99.90;;;;;;5079535;28;20240;-81
2023/07/31 02:13:32;;;;;;;3.17;1.00;;;17.20;99.90;;;;;;5078648;28;20213;-81
2023/07/31 02:15:58;;;;;;;2.03;0.73;;;17.20;99.90;;;;;;5061590;28;20298;-81
2023/07/31 02:18:24;;;;;;;1.53;0.77;;;17.20;99.90;;;;;;5045824;28;20686;-81
2023/07/31 02:20:50;;;;;;;6.57;1.17;;;17.20;99.90;;;;;;5045510;28;20192;-82
2023/07/31 02:23:18;;;;;;;5.13;0.90;;;17.20;99.90;;;;;;5045313;28;20208;-81
2023/07/31 02:25:44;;;;;;;0.53;0.53;;;17.20;99.90;;;;;;5078946;28;20212;-81
2023/07/31 02:28:10;;;;;;;2.10;0.90;;;17.20;99.90;;;;;;5079787;28;20219;-81
2023/07/31 02:30:35;;;;;;;1.53;1.17;;;17.20;99.90;;;;;;5078303;28;20278;-82
2023/07/31 02:33:01;;;;;;;2.13;0.97;;;17.20;99.90;;;;;;5030171;28;20192;-81
2023/07/31 02:35:27;;;;;;;1.90;1.00;;;17.20;99.90;;;;;;5062385;28;20225;-82
2023/07/31 02:37:53;;;;;;;1.83;1.13;;;17.20;99.90;;;;;;5061740;28;20339;-81
2023/07/31 02:40:18;;;;;;;1.07;0.63;;;17.20;99.90;;;;;;5044707;28;21070;-82
2023/07/31 02:42:44;;;;;;;3.33;1.50;;;17.20;99.90;;;;;;5062082;28;20321;-81
2023/07/31 02:45:10;;;;;;;3.03;1.13;;;17.20;99.90;;;;;;5061457;28;20656;-82
2023/07/31 02:47:36;;;;;;;3.97;1.30;;;17.20;99.90;;;;;;5061869;28;20741;-81
2023/07/31 02:50:03;;;;;;;1.50;1.10;;;17.20;99.90;;;;;;5044892;28;20213;-82
2023/07/31 02:52:29;;;;;;;3.23;1.03;;;17.20;99.90;;;;;;5044865;28;20235;-81
2023/07/31 02:54:54;;;;;;;2.23;1.23;;;17.20;99.90;;;;;;5044399;28;20592;-81
2023/07/31 02:57:20;;;;;;;0.77;0.70;;;17.20;99.90;;;;;;5060961;28;20270;-82
2023/07/31 02:59:46;;;;;;;1.50;1.00;;;17.20;99.90;;;;;;5059976;28;20248;-83
2023/07/31 03:02:12;;;;;;;1.07;0.87;;;17.20;99.90;;;;;;5062359;28;20258;-81
2023/07/31 03:04:38;;;;;;;2.27;1.00;;;17.10;99.90;;;;;;5044750;28;20920;-82
2023/07/31 03:07:05;;;;;;;2.00;1.00;;;17.10;99.90;;;;;;5065312;28;20732;-81
2023/07/31 03:09:30;;;;;;;1.63;0.70;;;17.10;99.90;;;;;;5048584;28;20934;-82
2023/07/31 03:11:56;;;;;;;2.67;0.80;;;17.10;99.90;;;;;;5048766;28;20204;-81
2023/07/31 03:14:22;;;;;;;1.60;0.70;;;17.00;99.90;;;;;;5064365;28;20655;-82
2023/07/31 03:16:48;;;;;;;1.20;0.70;;;16.90;99.90;;;;;;5065330;28;21210;-81
2023/07/31 03:19:14;;;;;;;0.53;0.50;;;16.90;99.90;;;;;;5047895;28;20251;-81
2023/07/31 03:21:40;;;;;;;3.93;0.87;;;16.90;99.90;;;;;;5082522;28;20687;-82
2023/07/31 03:24:06;;;;;;;2.57;1.10;;;16.90;99.90;;;;;;5066209;28;20303;-81
2023/07/31 03:26:36;;;;;;;1.90;0.50;;;16.90;99.90;;;;;;5047364;28;20303;-82
2023/07/31 03:29:02;;;;;;;0.53;0.53;;;16.90;99.90;;;;;;5082917;28;20225;-82
2023/07/31 03:31:28;;;;;;;0.63;0.63;;;16.80;99.90;;;;;;5064067;28;20258;-82
2023/07/31 03:33:53;;;;;;;2.07;0.70;;;16.80;99.90;;;;;;5048696;28;20270;-82
2023/07/31 03:36:19;;;;;;;0.50;0.50;;;16.80;99.90;;;;;;5047951;28;20189;-83
2023/07/31 03:38:46;;;;;;;0.50;0.50;;;16.80;99.90;;;;;;5065531;28;20860;-82
2023/07/31 03:41:12;;;;;;;0.37;0.30;;;16.70;99.90;;;;;;5047952;28;20227;-82
2023/07/31 03:43:38;;;;;;;0.40;0.40;;;16.60;99.90;;;;;;5046912;28;20228;-81
2023/07/31 03:46:04;;;;;;;0.70;0.53;;;16.60;99.90;;;;;;5065029;28;20234;-83
2023/07/31 03:48:29;;;;;;;0.50;0.50;;;16.60;99.90;;;;;;5064952;28;20262;-82
2023/07/31 03:50:55;;;;;;;0.40;0.40;;;16.60;99.90;;;;;;5064635;28;20260;-82
2023/07/31 03:53:21;;;;;;;0.30;0.30;;;16.60;99.90;;;;;;5046670;28;20248;-81
2023/07/31 03:55:47;;;;;;;0.47;0.40;;;16.70;99.90;;;;;;5046338;28;20225;-82
2023/07/31 03:58:12;;;;;;;4.23;0.67;;;16.70;99.90;;;;;;5047287;28;21136;-82
2023/07/31 04:00:40;;;;;;;0.50;0.50;;;16.70;99.90;;;;;;5047888;28;20235;-82
2023/07/31 04:03:06;;;;;;;0.73;0.43;;;16.70;99.90;;;;;;5064741;28;20193;-82
2023/07/31 04:05:33;;;;;;;1.90;0.60;;;16.70;99.90;;;;;;5064622;28;20275;-82
2023/07/31 04:07:58;;;;;;;0.67;0.60;;;16.70;99.90;;;;;;5062886;28;20224;-81
2023/07/31 04:10:24;;;;;;;0.40;0.40;;;16.80;99.90;;;;;;5080778;28;20749;-81
2023/07/31 04:12:50;;;;;;;4.20;1.20;;;16.80;99.90;;;;;;5047069;28;20220;-81
2023/07/31 04:15:16;;;;;;;0.50;0.50;;;16.80;99.90;;;;;;5064549;28;20196;-81
2023/07/31 04:17:42;;;;;;;1.07;0.70;;;16.90;99.90;;;;;;5064216;28;20730;-81
2023/07/31 04:20:08;;;;;;;2.40;1.00;;;16.90;99.90;;;;;;5062426;28;20228;-82
2023/07/31 04:22:34;;;;;;;1.37;0.70;;;16.90;99.90;;;;;;5063739;28;20221;-81
2023/07/31 04:24:59;;;;;;;1.63;1.10;;;17.00;99.90;;;;;;5080386;28;20685;-82
2023/07/31 04:27:25;;;;;;;1.50;0.87;;;17.10;99.90;;;;;;5046522;28;20188;-81
2023/07/31 04:29:51;;;;;;;3.67;1.00;;;17.10;99.90;;;;;;5047597;28;20280;-81
2023/07/31 04:32:17;;;;;;;2.53;1.43;;;17.10;99.90;;;;;;5081441;28;20332;-81
2023/07/31 04:34:43;;;;;;;1.57;1.20;;;17.00;99.90;;;;;;5063844;28;20705;-81
2023/07/31 04:37:09;;;;;;;3.80;1.37;;;17.10;99.90;;;;;;5080317;28;20231;-81
2023/07/31 04:39:34;;;;;;;7.43;1.60;;;17.10;99.90;;;;;;5063031;28;20232;-81
2023/07/31 04:42:00;;;;;;;3.90;1.83;;;17.10;99.90;;;;;;5046590;28;20543;-81
2023/07/31 04:44:26;;;;;;;2.60;1.30;;;17.10;99.90;;;;;;5080626;28;21266;-83
2023/07/31 04:46:52;;;;;;;6.17;1.90;;;17.20;99.90;;;;;;5045254;28;20224;-82
2023/07/31 04:49:19;;;;;;;4.70;1.63;;;17.20;99.90;;;;;;5046706;28;20227;-82
2023/07/31 04:51:44;;;;;;;5.47;2.33;;;17.20;99.90;;;;;;5046581;28;20303;-82
2023/07/31 04:54:12;;;;;;;5.60;2.03;;;17.20;99.90;;;;;;5047128;28;20193;-82
2023/07/31 04:56:38;;;;;;;3.03;2.67;;;17.20;99.90;;;;;;5058078;28;20216;-82
2023/07/31 04:59:04;;;;;;;4.17;1.63;;;17.20;99.90;;;;;;5044566;28;20289;-82
2023/07/31 05:01:29;;;;;;;5.00;1.43;;;17.10;99.90;;;;;;5063052;28;20732;-81
2023/07/31 05:03:55;;;;;;;3.10;1.93;;;17.10;99.90;;;;;;5045567;28;20216;-81
2023/07/31 05:06:21;;;;;;;3.17;2.43;;;17.10;99.90;;;;;;5080920;28;20191;-81
2023/07/31 05:08:46;;;;;;;6.00;1.90;;;17.10;99.90;;;;;;5063538;28;20494;-81
2023/07/31 05:11:12;;;;;;;2.40;1.93;;;17.20;99.90;;;;;;5081206;28;20220;-81
2023/07/31 05:13:38;;;;;;;4.53;1.93;;;17.20;99.90;;;;;;5059689;28;20224;-81
2023/07/31 05:16:04;;;;;;;3.20;1.20;;;17.30;99.90;;;;;;5063251;28;20970;-80
2023/07/31 05:18:30;;;;;;;4.03;2.00;;;17.30;99.90;;;;;;5044908;28;20208;-81
2023/07/31 05:20:55;;;;;;;3.33;2.17;;;17.30;99.90;;;;;;5081139;28;20200;-80
2023/07/31 05:23:21;;;;;;;3.23;1.40;;;17.30;99.90;;;;;;5062981;28;21051;-80
2023/07/31 05:25:47;;;;;;;4.00;1.67;;;17.30;99.90;;;;;;5080199;28;20269;-80
2023/07/31 05:28:13;;;;;;;1.70;1.20;;;17.40;99.90;;;;;;5079911;28;20284;-81
2023/07/31 05:30:38;;;;;;;2.50;1.77;;;17.40;99.90;;;;;;5062291;28;20216;-81
2023/07/31 05:33:04;;;;;;;2.83;2.13;;;17.40;99.90;;;;;;5062737;28;20272;-80
2023/07/31 05:35:30;;;;;;;7.97;2.73;;;17.40;99.90;;;;;;5045219;28;20281;-81
2023/07/31 05:37:56;;;;;;;6.97;2.13;;;17.50;99.90;;;;;;5080014;28;20681;-81
2023/07/31 05:40:21;;;;;;;3.80;1.40;;;17.50;99.90;;;;;;5062450;28;20563;-80
2023/07/31 05:42:47;;;;;;;2.87;1.50;;;17.50;99.90;;;;;;5062075;28;20677;-81
2023/07/31 05:45:13;;;;;;;4.80;1.77;;;17.40;99.90;;;;;;5045556;28;20192;-80
2023/07/31 05:47:39;;;;;;;5.77;1.90;;;17.50;99.90;;;;;;5080336;28;20193;-83
2023/07/31 05:50:05;;;;;;;4.53;2.00;;;17.60;99.90;;;;;;5079593;28;20258;-81
2023/07/31 05:52:31;;;;;;;4.17;1.50;;;17.60;99.90;;;;;;5059731;28;20303;-81
2023/07/31 05:54:57;;;;;;;6.23;1.57;;;17.80;99.90;;;;;;5061055;28;20228;-81
2023/07/31 05:57:23;;;;;;;3.30;1.93;;;17.90;99.90;;;;;;5061028;28;20257;-82
2023/07/31 05:59:48;;;;;;;6.13;2.43;;;18.00;99.90;;;;;;5046029;28;20701;-83
2023/07/31 06:02:14;;;;;;;12.83;2.30;;;17.90;99.90;;;;;;5060775;28;20722;-82
2023/07/31 06:04:40;;;;;;;7.63;1.67;;;17.90;99.90;;;;;;5045511;28;20220;-82
2023/07/31 06:07:06;;;;;;;6.57;1.90;;;17.90;99.90;;;;;;5062387;28;20339;-81
2023/07/31 06:09:31;;;;;;;7.83;2.00;;;17.90;99.90;;;;;;5047140;28;20308;-80
2023/07/31 06:11:57;;;;;;;6.50;2.13;;;17.90;99.90;;;;;;5063554;28;20969;-81
2023/07/31 06:14:23;;;;;;;7.03;2.03;;;17.90;99.90;;;;;;5062474;28;20224;-80
2023/07/31 06:16:49;;;;;;;4.97;1.90;;;17.90;99.90;;;;;;5061279;28;21140;-81
2023/07/31 06:19:14;;;;;;;3.53;1.50;;;17.90;99.90;;;;;;5061901;28;20762;-81
2023/07/31 06:21:42;;;;;;;1.53;1.20;;;17.90;99.90;;;;;;5062323;28;20212;-81
2023/07/31 06:24:08;;;;;;;3.03;1.50;;;18.00;99.90;;;;;;5044571;28;20612;-82
2023/07/31 06:26:34;;;;;;;2.50;1.17;;;18.00;99.90;;;;;;5061986;28;20622;-81
2023/07/31 06:29:00;;;;;;;2.90;1.50;;;18.00;99.90;;;;;;5062419;28;21096;-82
2023/07/31 06:31:25;;;;;;;2.60;1.77;;;18.10;99.90;;;;;;5044173;28;20278;-82
2023/07/31 06:33:52;;;;;;;1.23;0.90;;;18.10;99.90;;;;;;5063347;28;20684;-83
2023/07/31 06:36:18;;;;;;;5.53;1.03;;;18.00;99.90;;;;;;5081117;28;20207;-83
2023/07/31 06:38:47;;;;;;;0.73;0.60;;;18.00;99.90;;;;;;5079164;28;20295;-82
2023/07/31 06:41:13;;;;;;;0.93;0.90;;;17.90;99.90;;;;;;5046508;28;20220;-81
2023/07/31 06:43:38;;;;;;;0.70;0.70;;;17.90;99.90;;;;;;5082008;28;20240;-81
2023/07/31 06:46:08;;;;;;;0.70;0.70;;;18.00;99.90;;;;;;5048681;28;20229;-83
2023/07/31 06:48:34;;;;;;;3.07;0.63;;;18.00;99.90;;;;;;5063536;28;20251;-80
2023/07/31 06:51:01;;;;;;;2.40;0.80;;;18.00;99.90;;;;;;5065591;28;21636;-81
2023/07/31 06:53:26;;;;;;;0.60;0.57;;;18.00;99.90;;;;;;5064330;28;20204;-81
2023/07/31 06:55:52;;;;;;;0.70;0.70;;;17.80;99.90;;;;;;5081761;28;20223;-81
2023/07/31 06:58:18;;;;;;;0.30;0.30;;;17.90;99.90;;;;;;5064094;28;20229;-82
2023/07/31 07:00:44;;;;;;;0.73;0.43;;;17.90;99.90;;;;;;5082507;28;20216;-82
2023/07/31 07:03:10;;;;;;;1.03;0.63;;;17.90;99.90;;;;;;5066311;28;20189;-82
2023/07/31 07:05:36;;;;;;;2.47;0.93;;;18.00;99.90;;;;;;5081957;28;20208;-81
2023/07/31 07:08:02;;;;;;;0.70;0.70;;;18.20;99.90;;;;;;5083210;28;21418;-80
2023/07/31 07:10:27;;;;;;;0.90;0.80;;;18.30;99.90;;;;;;5081100;28;20221;-83
2023/07/31 07:12:55;;;;;;;1.73;1.23;;;18.40;99.90;;;;;;5064856;28;20232;-81
2023/07/31 07:15:21;;;;;;;1.00;0.80;;;18.50;99.90;;;;;;5082209;28;20181;-83
2023/07/31 07:17:46;;;;;;;0.93;0.60;;;18.50;99.90;;;;;;5047988;28;20643;-81
2023/07/31 07:20:12;;;;;;;2.77;1.10;;;18.50;99.90;;;;;;5064472;28;20732;-81
2023/07/31 07:22:38;;;;;;;1.33;0.97;;;18.70;99.90;;;;;;5064650;28;20235;-82
2023/07/31 07:25:05;;;;;;;1.30;0.80;;;18.70;99.90;;;;;;5048012;28;20325;-82
2023/07/31 07:27:30;;;;;;;0.73;0.70;;;18.80;99.90;;;;;;5064892;28;20302;-82
2023/07/31 07:29:56;;;;;;;1.77;1.00;;;18.80;99.90;;;;;;5065191;28;20562;-81
2023/07/31 07:32:22;;;;;;;2.27;0.93;;;18.70;99.90;;;;;;5064650;28;20220;-83
2023/07/31 07:34:48;;;;;;;2.03;1.20;;;18.70;99.90;;;;;;5030632;28;20219;-81
2023/07/31 07:37:14;;;;;;;0.90;0.70;;;18.70;99.90;;;;;;5064396;28;20217;-81
2023/07/31 07:39:40;;;;;;;2.30;0.93;;;18.80;99.90;;;;;;5030110;28;20248;-82
2023/07/31 07:42:06;;;;;;;3.60;0.93;;;18.90;99.90;;;;;;5064491;28;20259;-82
2023/07/31 07:44:32;;;;;;;1.03;0.63;;;19.00;99.90;;;;;;5031192;28;20577;-81
2023/07/31 07:46:57;;;;;;;0.53;0.50;;;19.10;99.90;;;;;;5081231;28;20223;-81
2023/07/31 07:49:23;;;;;;;0.60;0.60;;;19.20;99.90;;;;;;5028827;28;20225;-84
2023/07/31 07:51:49;;;;;;;0.60;0.60;;;19.20;99.90;;;;;;5030218;28;20223;-80
2023/07/31 07:54:16;;;;;;;0.40;0.40;;;19.10;99.90;;;;;;5080473;28;20918;-82
2023/07/31 07:56:42;;;;;;;1.33;0.33;;;19.00;99.90;;;;;;5046084;28;20185;-81
2023/07/31 07:59:08;;;;;;;1.90;0.40;;;19.00;99.90;;;;;;5080962;28;20247;-82
2023/07/31 08:01:34;;;;;;;2.13;0.80;;;19.10;99.90;;;;;;5043301;28;20228;-82
2023/07/31 08:04:00;;;;;;;0.70;0.50;;;19.20;99.90;;;;;;5062978;28;20220;-82
2023/07/31 08:06:26;;;;;;;1.40;1.03;;;19.60;99.90;;;;;;5064372;28;20271;-83
2023/07/31 08:08:52;;;;;;;1.00;0.50;;;20.30;99.90;;;;;;5080731;28;20279;-81
2023/07/31 08:11:18;;;;;;;1.70;0.70;;;21.00;99.90;;;;;;5046036;28;20225;-83
2023/07/31 08:13:43;;;;;;;0.63;0.60;;;20.80;99.90;;;;;;5081589;28;20212;-81
2023/07/31 08:16:09;;;;;;;1.03;0.80;;;20.70;99.90;;;;;;5061338;28;20221;-82
2023/07/31 08:18:35;;;;;;;0.90;0.50;;;20.40;99.90;;;;;;5046016;28;20232;-82
2023/07/31 08:21:04;;;;;;;0.70;0.63;;;20.40;99.90;;;;;;5047314;28;20184;-82
2023/07/31 08:23:30;;;;;;;3.20;0.80;;;20.30;99.90;;;;;;5080465;28;20265;-82
2023/07/31 08:25:56;;;;;;;1.70;0.50;;;20.00;99.90;;;;;;5046894;28;21139;-82
2023/07/31 08:28:22;;;;;;;2.90;0.83;;;19.70;99.90;;;;;;5046198;28;20638;-81
2023/07/31 08:30:47;;;;;;;0.60;0.60;;;19.50;99.90;;;;;;5045096;28;20220;-81
2023/07/31 08:33:13;;;;;;;1.53;0.73;;;19.30;99.90;;;;;;5079903;28;20315;-82
2023/07/31 08:35:39;;;;;;;1.07;0.50;;;19.10;99.90;;;;;;5063832;28;21109;-80
2023/07/31 08:38:04;;;;;;;0.43;0.43;;;19.10;99.90;;;;;;5062343;28;20701;-82
2023/07/31 08:40:30;;;;;;;6.90;1.87;;;19.40;99.90;;;;;;5063070;28;20239;-81
2023/07/31 08:42:56;;;;;;;1.87;0.57;;;19.40;99.90;;;;;;5047058;28;20216;-82
2023/07/31 08:45:22;;;;;;;1.23;0.63;;;19.40;99.90;;;;;;5063356;28;20215;-81
2023/07/31 08:47:50;;;;;;;3.03;1.07;;;19.20;99.90;;;;;;5062570;28;20705;-82
2023/07/31 08:50:18;;;;;;;2.17;0.90;;;19.10;99.90;;;;;;5062989;28;20216;-81
2023/07/31 08:52:45;;;;;;;2.13;1.30;;;19.20;99.90;;;;;;5045189;28;20215;-82
2023/07/31 08:55:11;;;;;;;3.17;1.43;;;19.30;99.90;;;;;;5062739;28;20219;-81
2023/07/31 08:57:38;;;;;;;2.83;1.23;;;19.40;99.90;;;;;;5058193;28;21019;-82
2023/07/31 09:00:06;;;;;;;3.53;1.00;;;19.60;99.90;;;;;;5068074;28;20259;-82
2023/07/31 09:02:43;;;;;;;5.07;1.43;;;19.60;99.90;;;;;;5052890;28;20228;-82
2023/07/31 09:05:10;;;;;;;0.60;0.50;;;19.70;99.90;;;;;;5057254;28;20216;-82
2023/07/31 09:07:37;;;;;;;1.27;1.13;;;19.70;99.90;;;;;;5075571;28;20223;-84
2023/07/31 09:10:04;;;;;;;4.07;1.00;;;19.80;99.90;;;;;;5039676;28;20232;-82
2023/07/31 09:12:30;;;;;;;2.40;1.00;;;19.90;99.90;;;;;;5056125;28;20572;-85
2023/07/31 09:15:00;;;;;;;4.30;1.53;;;20.00;99.90;;;;;;5077083;28;20633;-82
2023/07/31 09:17:34;;;;;;;0.90;0.90;;;19.90;99.90;;;;;;5075778;28;20227;-82
2023/07/31 09:20:15;;;;;;;1.93;1.13;;;20.20;99.90;;;;;;5053451;28;20273;-83
2023/07/31 09:22:41;;;;;;;7.83;1.17;;;20.10;99.90;;;;;;5058098;28;20705;-81
2023/07/31 09:25:17;;;;;;;0.60;0.60;;;20.40;99.90;;;;;;5057410;28;20289;-82
2023/07/31 09:27:50;;;;;;;2.67;0.90;;;20.50;99.90;;;;;;5059141;28;20208;-81
2023/07/31 09:30:17;;;;;;;2.20;0.93;;;20.40;99.90;;;;;;5079332;28;20211;-80
2023/07/31 09:32:44;;;;;;;1.47;1.07;;;20.90;99.90;;;;;;5063530;28;20188;-81
2023/07/31 09:35:21;;;;;;;0.83;0.50;;;21.10;99.90;;;;;;5044614;28;20231;-81
2023/07/31 09:37:51;;;;;;;0.53;0.47;;;21.00;99.90;;;;;;5044159;28;20295;-81
2023/07/31 09:40:29;;;;;;;1.43;0.40;;;21.00;99.90;;;;;;5044476;28;20237;-81
2023/07/31 09:43:04;;;;;;;2.33;0.50;;;20.80;99.90;;;;;;5060777;28;20220;-82
2023/07/31 09:45:34;;;;;;;0.77;0.53;;;20.50;99.90;;;;;;5079903;28;20191;-81
2023/07/31 09:48:00;;;;;;;0.33;0.33;;;20.30;99.90;;;;;;5079109;28;20187;-82
2023/07/31 09:50:26;;;;;;;0.70;0.50;;;20.10;99.90;;;;;;5046000;28;20208;-82
2023/07/31 09:52:52;;;;;;;0.47;0.43;;;19.90;99.90;;;;;;5045288;28;20256;-83
2023/07/31 09:55:19;;;;;;;1.67;0.60;;;20.10;99.90;;;;;;5044046;28;20235;-82
2023/07/31 09:57:47;;;;;;;0.87;0.87;;;19.90;99.90;;;;;;5079563;28;20253;-82
2023/07/31 10:00:15;;;;;;;0.90;0.60;;;19.80;99.90;;;;;;5080220;28;20351;-82
2023/07/31 10:02:41;;;;;;;0.83;0.60;;;19.80;99.90;;;;;;5049404;28;20191;-83
2023/07/31 10:05:08;;;;;;;0.40;0.40;;;19.80;99.90;;;;;;5065204;28;20225;-83
2023/07/31 10:07:39;;;;;;;0.67;0.50;;;19.60;99.90;;;;;;5044854;28;20611;-82
2023/07/31 10:10:06;;;;;;;0.63;0.63;;;19.70;99.90;;;;;;5078961;28;20312;-82
2023/07/31 10:12:34;;;;;;;2.07;0.67;;;19.90;99.90;;;;;;5060690;28;20350;-82
2023/07/31 10:15:01;;;;;;;1.63;0.80;;;19.90;99.90;;;;;;5064518;28;20188;-82
2023/07/31 10:17:28;;;;;;;0.60;0.60;;;19.90;99.90;;;;;;5065789;28;20228;-82
2023/07/31 10:19:56;;;;;;;0.60;0.60;;;19.70;99.90;;;;;;5052698;28;20234;-82
2023/07/31 10:22:22;;;;;;;2.60;1.10;;;19.90;99.90;;;;;;5066340;28;20601;-81
2023/07/31 10:24:50;;;;;;;0.43;0.43;;;20.40;99.90;;;;;;5083638;28;20240;-81
2023/07/31 10:27:16;;;;;;;2.00;0.60;;;20.70;99.90;;;;;;5064193;28;20335;-81
2023/07/31 10:29:46;;;;;;;3.40;0.90;;;20.80;99.90;;;;;;5050019;28;21199;-82
2023/07/31 10:32:14;;;;;;;4.43;0.80;;;20.70;99.90;;;;;;5064585;28;20307;-82
2023/07/31 10:34:41;;;;;;;0.67;0.67;;;20.40;99.90;;;;;;5046441;28;20208;-83
2023/07/31 10:37:35;;;;;;;1.20;1.10;;;20.30;99.90;;;;;;5064837;28;20592;-82
2023/07/31 10:40:05;;;;;;;0.80;0.80;;;20.30;99.90;;;;;;5064950;28;20709;-82
2023/07/31 10:42:35;;;;;;;0.50;0.50;;;20.00;99.90;;;;;;5082241;28;20224;-83
2023/07/31 10:45:06;;;;;;;0.93;0.70;;;19.90;99.90;;;;;;5048904;28;20180;-83
2023/07/31 10:48:22;;;;;;;1.13;1.10;;;20.10;99.90;;;;;;5082701;28;21176;-84
2023/07/31 10:50:55;;;;;;;1.50;1.00;;;20.10;99.90;;;;;;5046377;28;20208;-83
2023/07/31 10:53:29;;;;;;;3.07;0.80;;;20.30;99.90;;;;;;5064464;28;20208;-83
2023/07/31 10:55:59;;;;;;;0.90;0.90;;;20.20;99.90;;;;;;5082639;28;20205;-81
2023/07/31 10:58:25;;;;;;;3.10;1.23;;;20.00;99.90;;;;;;5081310;28;20244;-83
2023/07/31 11:00:56;;;;;;;1.13;0.93;;;20.00;99.90;;;;;;5047701;28;20273;-82
2023/07/31 11:03:26;;;;;;;1.47;0.90;;;19.90;99.90;;;;;;5082691;28;20356;-83
2023/07/31 11:06:03;;;;;;;4.60;0.80;;;20.00;99.90;;;;;;5064000;28;20233;-82
2023/07/31 11:08:40;;;;;;;2.27;1.10;;;20.20;99.90;;;;;;5062786;28;20224;-82
2023/07/31 11:11:09;;;;;;;1.37;1.13;;;20.40;99.90;;;;;;5081494;28;21031;-82
2023/07/31 11:13:49;;;;;;;0.83;0.67;;;20.50;99.90;;;;;;5061595;28;20309;-81
2023/07/31 11:16:15;;;;;;;0.87;0.87;;;20.40;99.90;;;;;;5081933;28;20291;-82
2023/07/31 11:18:42;;;;;;;1.20;1.10;;;20.30;99.90;;;;;;5064386;28;20224;-82
2023/07/31 11:21:13;;;;;;;2.80;1.17;;;20.50;99.90;;;;;;5064898;28;20193;-82
2023/07/31 11:23:39;;;;;;;3.10;1.57;;;20.70;99.90;;;;;;5038216;28;20295;-83
2023/07/31 11:26:06;;;;;;;2.50;1.67;;;20.70;99.90;;;;;;5063595;28;21298;-84
2023/07/31 11:28:35;;;;;;;0.80;0.80;;;20.50;99.90;;;;;;5063095;28;20216;-85
2023/07/31 11:31:02;;;;;;;1.43;0.70;;;20.70;99.90;;;;;;5062849;28;20228;-82
2023/07/31 11:33:28;;;;;;;4.90;1.30;;;20.50;99.90;;;;;;5063449;28;20341;-82
2023/07/31 11:35:54;;;;;;;1.10;1.10;;;20.40;99.90;;;;;;5064841;28;21158;-82
2023/07/31 11:38:30;;;;;;;1.63;0.80;;;20.20;99.90;;;;;;5064027;28;20228;-81
2023/07/31 11:40:58;;;;;;;4.57;1.23;;;19.80;99.90;;;;;;5081909;28;20220;-81
2023/07/31 11:43:24;;;;;;;0.70;0.70;;;19.70;99.90;;;;;;5063062;28;20216;-81
2023/07/31 11:45:56;;;;;;;1.63;0.70;;;19.80;99.90;;;;;;5063654;28;20213;-83
2023/07/31 11:48:30;;;;;;;3.43;0.93;;;19.70;99.90;;;;;;5081790;28;20184;-82
2023/07/31 11:51:01;;;;;;;0.93;0.70;;;19.70;99.90;;;;;;5081556;28;20185;-82
2023/07/31 11:53:37;;;;;;;0.70;0.70;;;19.70;99.90;;;;;;5081582;28;20576;-81
2023/07/31 11:56:06;;;;;;;1.13;1.03;;;19.60;99.90;;;;;;5081884;28;20220;-81
2023/07/31 11:58:34;;;;;;;2.33;0.50;;;19.60;99.90;;;;;;5062250;28;21038;-82
2023/07/31 12:01:00;;;;;;;1.13;0.67;;;19.70;99.90;;;;;;5045825;28;20334;-82
2023/07/31 12:03:26;;;;;;;1.83;0.63;;;19.80;99.90;;;;;;5063933;28;20195;-81
2023/07/31 12:05:55;;;;;;;1.17;1.10;;;19.80;99.90;;;;;;5062246;28;20270;-81
2023/07/31 12:08:23;;;;;;;2.27;1.27;;;19.80;99.90;;;;;;5080892;28;20277;-83
2023/07/31 12:10:51;;;;;;;3.13;1.40;;;19.90;99.90;;;;;;5081264;28;20458;-81
2023/07/31 12:13:26;;;;;;;1.73;1.57;;;20.10;99.90;;;;;;5063461;28;20231;-80
2023/07/31 12:15:57;;;;;;;4.53;1.23;;;20.20;99.90;;;;;;5080685;28;20248;-82
2023/07/31 12:18:25;;;;;;;1.37;1.07;;;20.20;99.90;;;;;;5079411;28;20243;-81
2023/07/31 12:20:59;;;;;;;5.97;1.67;;;20.40;99.90;;;;;;5046986;28;20184;-82
2023/07/31 12:23:30;;;;;;;3.67;1.70;;;20.30;99.90;;;;;;5062057;28;21136;-81
2023/07/31 12:26:14;;;;;;;1.47;1.07;;;20.40;99.90;;;;;;5079899;28;20320;-82
2023/07/31 12:28:46;;;;;;;1.13;1.00;;;20.40;99.90;;;;;;5079806;28;20342;-81
2023/07/31 12:31:13;;;;;;;2.93;1.50;;;20.20;99.90;;;;;;5061911;28;20566;-81
2023/07/31 12:33:40;;;;;;;3.37;1.57;;;20.30;99.90;;;;;;5075624;28;20216;-81
2023/07/31 12:36:12;;;;;;;3.43;1.33;;;20.40;99.90;;;;;;5074777;28;20307;-82
2023/07/31 12:38:38;;;;;;;4.73;1.50;;;20.40;99.90;;;;;;5056687;28;20617;-81
2023/07/31 12:41:06;;;;;;;3.33;1.30;;;20.30;99.90;;;;;;5044428;28;20307;-81
2023/07/31 12:43:32;;;;;;;1.30;1.20;;;20.30;99.90;;;;;;5041609;28;20217;-81
2023/07/31 12:45:57;;;;;;;3.93;1.57;;;20.20;99.90;;;;;;5077025;28;20219;-81
2023/07/31 12:48:23;;;;;;;6.10;1.83;;;20.40;99.90;;;;;;5060401;28;20564;-82